AMAT2: Canadian River Nr Amarillo, TX

                                SHEF ID:       AMAT2     Canadian Rv nr Amarillo, TX
STATION TYPE:
Regulating: Stage = 13.00, Flow = 11994

PRECIP STAGE RIV-FLOW WTR-TEMP CONDUCT BAT-LOAD
in ft cfs F umho/cm volt
Ccp-Rev Ccp-Rev Ccp-Rev Ccp-Rev Ccp-Rev Ccp-Rev
(America/Chicago)
08/26 00:00 ---- 5.80 2046 67.98 2 12.62
08/26 01:00 ---- 3.71 836 68.20 3 12.61
08/26 02:00 ---- 2.94 525 67.89 3 12.59
08/26 03:00 ---- 2.94 525 67.71 3 12.58
08/26 04:00 ---- 2.92 518 67.82 3 12.56
08/26 05:00 ---- 2.69 436 68.13 3 12.54
08/26 06:00 ---- 2.29 283 68.49 3 12.53
08/26 07:00 ---- 1.93 179 68.68 3 12.54
08/26 08:00 ---- 1.71 127 68.63 3 13.41
08/26 09:00 ---- 1.57 97 68.56 3 13.76
08/26 10:00 ---- 1.49 83 68.85 3 13.78
08/26 11:00 ---- 1.49 83 69.84 3 13.75
08/26 12:00 ---- 1.54 92 71.53 3 13.58
08/26 13:00 ---- 1.53 90 73.74 3 13.69
08/26 14:00 ---- 1.73 132 76.17 3 13.59
08/26 15:00 ---- 1.84 157 78.24 3 13.38
08/26 16:00 ---- 1.95 184 79.79 3 13.28
08/26 17:00 ---- 1.87 164 81.19 3 13.26
08/26 18:00 ---- 1.75 137 82.31 3 13.27
08/26 19:00 ---- 1.61 105 82.81 3 13.17
08/26 20:00 ---- 1.50 84 82.69 3 12.75
08/26 21:00 ---- 1.41 68 82.11 3 12.67
08/26 22:00 ---- 1.36 60 81.30 3 12.66
08/26 23:00 ---- 1.31 53 80.44 3 12.65
Data processed at Thu 27Aug2026 04:15 GMT

NOTICE: If you are parsing this page

Please convert to using our Data API. Starting early 2026 we will be migrating to: https://water.usace.army.mil with modern pages rendered in JavaScript. When this migration completes you will no longer be able to scrape this page! CWMSDataAPI (CDA)

Timeseries IDs (TSIDs)

TSIDs used from left to right in the data table
AMAR.Precip-Inc.Total.1Hour.1Hour.Ccp-Rev
AMAR.Stage.Inst.1Hour.0.Ccp-Rev
AMAR.Flow.Inst.1Hour.0.Ccp-Rev
AMAR.Temp-Water.Inst.1Hour.0.Ccp-Rev
AMAR.Cond-Water.Inst.1Hour.0.Ccp-Rev
AMAR.Volt-Battery Load.Inst.1Hour.0.Ccp-Rev

                            

All information presented herein is the property of the government of the United States of America and may be revised or deleted at any time without prior notice. Dissemination of this information without the expressed written consent of the Public Affairs Office, Tulsa District U.S. Army Corps of Engineers is strictly prohibited. These data are gathered electronically and, as presented, have NOT undergone any form of quality control. These data are NOT guaranteed to be valid or correct.